• pl
  • eng

Awiacja
WIADOMOŚCI
ostatnia aktualizacja: 04.09.2019 09:33
Uprzejmie informujemy, że od dnia 2.09.2019 jest dostępna w formie testowej prognoza GAFOR. Prosimy o przesyłanie na adres gafor@imgw.pl uwag i sugestii, które przyczynią się do rozwoju produktu.

W dniach 1-5 października br. IMGW-PIB we współpracy z Lotniskiem Leszno, organizuje XVIII edycję Szkoły Meteorologii Lotniczej. Temat tegorocznej edycji Szkoły to "Meteorologia, a bezpieczne planowanie lotu". Szczegółowe informacje znajdują się w poniższym linku. Serdecznie zapraszamy do udziału w Szkole Meteorologii Lotniczej.

Komunikaty METAR z lotnisk wojskowych. 02:01 22.09.2019

METAR EPCE 220000Z 07002KT 0250 FG VV003 06/06
Q1019 RMK 061 100 ///=

METAR EPDA 220000Z VRB01KT 0200 FG VV001 07/07
Q1019 RMK 072 097 ///=

METAR EPDE 220000Z AUTO 00000KT 3900 04/03 Q1020 RMK 035 096 ///=

METAR COR EPIR 220000Z 18004KT 0800 FG NSC 08/07 Q1019 RMK 077 098
0/0=

METAR EPKS 220000Z NIL=

METAR EPLK 220000Z 09002KT CAVOK 07/06 Q1020 RMK 066 098 0/0=

METAR EPLY 220000Z VRB02KT CAVOK 07/06 Q1020 RMK 070 095 0/0=

METAR EPMB 220000Z 26005KT 9999 FEW017 11/09 Q1019 RMK 114 088 2/2=

METAR EPMI 220000Z NIL=

METAR EPMM 220000Z 27002KT 0400 R26/0750N FG SCT003 06/05 Q1020 RMK
055 095 3/3=

METAR EPNA 220000Z NIL=

METAR EPOK 220000Z 25003KT 9999 FEW010 08/07
Q1018 RMK 079 096 2/2=

METAR EPPR 220000Z AUTO 16002KT 10/08 Q1018 RMK 097 089 ///=

METAR EPPW 220000Z 11004KT CAVOK 09/07 Q1020 RMK 087 091 0/0=

METAR EPRA 220000Z AUTO 23002KT 6000 06/05 Q1021 RMK 058 095 ///=

METAR EPSN 220000Z AUTO 00000KT 1500 R29/1100U BCFG NCD 06/05 Q1019
RMK 060 096 ///=

METAR EPTM 220000Z AUTO 00000KT 05/04 Q1021 RMK 049 093 ///=
 METAR EPBC
Lokalizacja:
Czas::
Średnia prędkość wiatru: węzłów
Widzialność:0 metrów
Awiacja.imgw.pl jest pogodowym serwisem informacyjnym
Instytutu Meteorologii i Gospodarki Wodnej Państwowego Instytutu Badawczego.
Copyright IMGW PIB 2009-2011© Wszelkie prawa zastrzeżone.